EmailTwitter


Surface observations / France / LFMP (07747)

Regions: Quebec | Canada | USA | Europe | France | UK | Elsewhere
Station
Display
Info & Location for LFMP (07747) | Help decoding METAR

Weather Conditions observed on 2018/10/17 at 09:30 UTC at PERPIGNAN/RIVESA, FR (LFMP)

Sky conditions: overcast.

Temperature: 19.0 Celsius.

Dewpoint: 15.0 Celsius.

Relative Humidity: 78%

Humidex: 23.

Winds: North at 7 km/h or 4 knots.

Mean Sea level Pressure: 101.70 kilopascals.

Horizontal visibility: 6.21 statute miles or 9.94 kilometers.

Height of the Ceiling: 1280 metres ( 4200 feet ).

Coded METAR:

LFMP 170930Z AUTO 36004KT 330V030 9999 OVC042 19/15 Q1017 TEMPO SHRA BKN013TCU=